Boone County Airport

Airport
ICAO code: 
KHRO
Summary
ICAO Region: 
NAM
Territory: 
Location: 
Harrison, Arkansas,
Elevation: 
1365 ft
Coordinates: 
Aerial View: 
36° 15' 40.993" N, 93° 9' 16.996" W
Metar
Observation
KHRO 040653Z AUTO 30004KT 10SM CLR 15/12 A3004 RMK AO2 SLP161 T01500122 $
Station
Harrison, Boone County Airport
Date/Time
2021-12-04 06:53:00
Wind direction
300°
Wind speed
04 kts
Lowest cloud amount
n/a
Temperature
15°C
Dew point
12.2°C
Humidity
83%
Weather condition
n/a

Description

Regional airport serving Harrison, Arkansas and the surrounding Boone county. It is located 3 nm northwest of the city's business district.

Climatology

Humid “subtropical” climate (Köppen climate classification Cfa) - characterized by hot, humid summers and cool winters. Significant amounts of precipitation occur in all seasons in most areas. Winter rainfall (and sometimes snowfall) is associated with large storms that the westerlies steer from west to east. Most summer rainfall occurs during thunderstorms and occasional tropical storms (hurricanes).

Runways

Designator Length Width Surface Rops
18/36 1878 46 ASP Yes/Yes
Airport map: 
Aerial View: 

SKYbrary Partners:

Safety knowledge contributed by: